createdAt,value
2018-11-26T00:00:47.568Z,11.97
2018-11-26T00:03:14.224Z,11.84
2018-11-26T00:05:41.559Z,12.13
2018-11-26T00:08:12.584Z,12.36
2018-11-26T00:10:43.682Z,12.16
2018-11-26T00:13:10.826Z,11.92
2018-11-26T00:15:38.564Z,11.96
2018-11-26T00:18:06.346Z,11.87
2018-11-26T00:20:33.082Z,11.87
2018-11-26T00:23:06.424Z,11.90
2018-11-26T00:25:35.578Z,11.91
2018-11-26T00:28:03.039Z,11.97
2018-11-26T00:30:31.900Z,11.92
2018-11-26T00:33:08.488Z,11.79
2018-11-26T00:35:35.192Z,11.87
2018-11-26T00:38:02.876Z,11.96
2018-11-26T00:40:33.793Z,12.00
2018-11-26T00:45:48.395Z,11.93
2018-11-26T00:48:16.081Z,12.09
2018-11-26T00:50:45.100Z,12.01
2018-11-26T00:53:12.553Z,12.12
2018-11-26T00:55:40.741Z,12.36
2018-11-26T00:58:08.435Z,12.41
2018-11-26T01:00:36.033Z,12.47
2018-11-26T01:03:03.146Z,12.19
2018-11-26T01:05:32.015Z,12.07
2018-11-26T01:08:03.326Z,11.94
2018-11-26T01:10:32.131Z,11.97
2018-11-26T01:12:59.591Z,11.88
2018-11-26T01:15:26.050Z,11.94
2018-11-26T01:17:53.471Z,12.00
2018-11-26T01:20:20.219Z,11.96
2018-11-26T01:22:47.915Z,11.94
2018-11-26T01:25:15.341Z,11.90
2018-11-26T01:30:41.331Z,11.80
2018-11-26T01:33:14.797Z,11.71
2018-11-26T01:35:44.862Z,11.74
2018-11-26T01:38:22.322Z,11.73
2018-11-26T01:43:35.797Z,12.04
2018-11-26T01:46:04.701Z,11.60
2018-11-26T01:48:33.631Z,11.42
2018-11-26T01:51:01.727Z,11.37
2018-11-26T01:53:29.130Z,11.23
2018-11-26T01:55:55.896Z,11.18
2018-11-26T01:58:26.058Z,11.39
2018-11-26T02:00:54.715Z,11.10
2018-11-26T02:08:54.353Z,10.94
2018-11-26T02:11:21.786Z,11.15
2018-11-26T02:16:35.212Z,10.93
2018-11-26T02:19:02.553Z,11.16
2018-11-26T02:21:30.682Z,11.49
2018-11-26T02:23:57.163Z,11.66
2018-11-26T02:26:23.623Z,11.50
2018-11-26T02:34:29.251Z,11.58
2018-11-26T02:36:57.414Z,11.50
2018-11-26T02:39:28.171Z,11.32
2018-11-26T02:41:59.815Z,11.52
2018-11-26T02:47:17.013Z,11.56
2018-11-26T02:49:45.082Z,11.64
2018-11-26T02:52:14.826Z,11.99
2018-11-26T02:57:28.578Z,11.85
2018-11-26T02:59:59.424Z,11.67
2018-11-26T03:05:15.149Z,11.62
2018-11-26T03:07:43.287Z,11.63
2018-11-26T03:10:10.543Z,11.71
2018-11-26T03:12:40.085Z,11.67
2018-11-26T03:15:08.273Z,11.66
2018-11-26T03:17:39.384Z,11.82
2018-11-26T03:22:52.423Z,12.02
2018-11-26T03:25:18.894Z,11.89
2018-11-26T03:27:45.356Z,11.74
2018-11-26T03:30:16.251Z,11.79
2018-11-26T03:32:43.937Z,11.67
2018-11-26T03:35:11.670Z,11.42
2018-11-26T03:37:38.369Z,11.32
2018-11-26T03:40:04.845Z,11.41
2018-11-26T03:42:31.562Z,11.46
2018-11-26T03:44:59.015Z,11.62
2018-11-26T03:47:27.293Z,11.52
2018-11-26T03:49:54.742Z,11.41
2018-11-26T03:52:23.867Z,11.16
2018-11-26T03:54:55.119Z,11.23
2018-11-26T03:57:21.546Z,11.31
2018-11-26T03:59:59.003Z,11.25
2018-11-26T04:02:30.602Z,11.24
2018-11-26T04:04:58.011Z,11.20
2018-11-26T04:07:26.425Z,11.31
2018-11-26T04:09:53.895Z,11.47
2018-11-26T04:15:08.618Z,11.42
2018-11-26T04:17:35.047Z,11.53
2018-11-26T04:25:36.767Z,11.71
2018-11-26T04:30:52.592Z,11.69
2018-11-26T04:33:21.609Z,11.76
2018-11-26T04:38:37.239Z,11.90
2018-11-26T04:41:06.225Z,11.77
2018-11-26T04:43:34.712Z,11.72
2018-11-26T04:46:04.176Z,11.86
2018-11-26T04:48:33.495Z,11.86
2018-11-26T04:51:00.670Z,11.78
2018-11-26T04:53:29.321Z,11.82
2018-11-26T04:55:55.805Z,11.78
2018-11-26T04:58:23.479Z,11.93
2018-11-26T05:00:57.878Z,11.75
2018-11-26T05:03:27.379Z,11.81
2018-11-26T05:05:56.362Z,11.83
2018-11-26T05:08:22.757Z,11.84
2018-11-26T05:10:52.385Z,11.82
2018-11-26T05:16:08.308Z,11.90
2018-11-26T05:18:35.740Z,12.09
2018-11-26T05:21:02.178Z,12.01
2018-11-26T05:23:38.704Z,12.18
2018-11-26T05:26:06.153Z,12.10
2018-11-26T05:28:34.070Z,12.07
2018-11-26T05:33:50.311Z,12.02
2018-11-26T05:36:20.250Z,11.98
2018-11-26T05:38:51.050Z,12.10
2018-11-26T05:41:21.276Z,12.20
2018-11-26T05:44:06.069Z,11.79
2018-11-26T05:46:34.735Z,11.64
2018-11-26T05:49:03.148Z,11.72
2018-11-26T05:51:30.866Z,11.96
2018-11-26T05:54:01.500Z,11.86
2018-11-26T05:56:28.958Z,11.80
2018-11-26T05:58:58.059Z,11.82
2018-11-26T06:01:26.855Z,11.68
2018-11-26T06:03:55.661Z,11.42
2018-11-26T06:06:25.454Z,11.32
2018-11-26T06:08:52.628Z,11.53
2018-11-26T06:11:23.979Z,11.66
2018-11-26T06:13:52.184Z,11.49
2018-11-26T06:16:19.610Z,11.69
2018-11-26T06:18:50.473Z,11.59
2018-11-26T06:21:20.213Z,11.68
2018-11-26T06:23:50.830Z,11.70
2018-11-26T06:26:17.277Z,11.69
2018-11-26T06:28:43.757Z,11.68
2018-11-26T06:31:11.358Z,11.65
2018-11-26T06:33:41.792Z,11.71
2018-11-26T06:36:09.275Z,11.78
2018-11-26T06:38:36.741Z,11.86
2018-11-26T06:41:04.186Z,11.90
2018-11-26T06:43:30.733Z,11.97
2018-11-26T06:45:58.185Z,11.94
2018-11-26T06:48:29.008Z,11.69
2018-11-26T06:50:56.173Z,11.23
2018-11-26T06:53:23.588Z,10.92
2018-11-26T06:55:50.007Z,11.06
2018-11-26T07:01:05.151Z,11.15
2018-11-26T07:03:31.598Z,11.39
2018-11-26T07:06:01.040Z,11.81
2018-11-26T07:08:27.473Z,11.74
2018-11-26T07:10:58.102Z,11.55
2018-11-26T07:13:25.536Z,11.38
2018-11-26T07:15:56.090Z,11.63
2018-11-26T07:18:22.801Z,11.80
2018-11-26T07:20:56.607Z,11.72
2018-11-26T07:23:25.436Z,11.84
2018-11-26T07:25:52.135Z,11.85
2018-11-26T07:28:19.008Z,11.60
2018-11-26T07:30:46.451Z,11.76
2018-11-26T07:33:13.672Z,11.97
2018-11-26T07:35:41.117Z,11.91
2018-11-26T07:38:09.731Z,11.77
2018-11-26T07:40:36.622Z,11.69
2018-11-26T07:43:05.246Z,11.81
2018-11-26T07:45:32.912Z,11.86
2018-11-26T07:47:59.377Z,11.61
2018-11-26T07:50:25.800Z,11.43
2018-11-26T07:52:56.492Z,11.68
2018-11-26T07:55:26.052Z,11.72
2018-11-26T07:57:53.478Z,11.68
2018-11-26T08:03:08.469Z,11.81
2018-11-26T08:05:35.922Z,11.75
2018-11-26T08:08:07.502Z,11.69
2018-11-26T08:10:35.017Z,11.66
2018-11-26T08:13:04.105Z,11.64
2018-11-26T08:15:30.530Z,11.55
2018-11-26T08:17:59.537Z,11.58
2018-11-26T08:20:33.586Z,11.60
2018-11-26T08:23:04.461Z,11.76
2018-11-26T08:25:33.363Z,11.84
2018-11-26T08:27:59.902Z,11.93
2018-11-26T08:30:33.694Z,11.84
2018-11-26T08:33:02.822Z,11.93
2018-11-26T08:35:30.578Z,11.85
2018-11-26T08:37:57.003Z,11.68
2018-11-26T08:40:23.474Z,11.80
2018-11-26T08:42:54.259Z,11.62
2018-11-26T08:45:22.013Z,11.82
2018-11-26T08:47:50.580Z,11.82
2018-11-26T08:50:18.037Z,11.88
2018-11-26T08:52:46.605Z,11.74
2018-11-26T08:55:13.576Z,11.46
2018-11-26T08:57:40.041Z,11.52
2018-11-26T09:00:10.464Z,11.65
2018-11-26T09:05:24.365Z,11.12
2018-11-26T09:07:52.474Z,10.62
2018-11-26T09:10:19.924Z,10.46
2018-11-26T09:12:47.576Z,10.53
2018-11-26T09:18:03.867Z,11.02
2018-11-26T09:20:32.441Z,10.79
2018-11-26T09:22:59.164Z,10.61
2018-11-26T09:25:30.009Z,10.56
2018-11-26T09:30:43.132Z,10.40
2018-11-26T09:33:10.877Z,10.56
2018-11-26T09:35:37.620Z,10.52
2018-11-26T09:38:06.214Z,10.58
2018-11-26T09:43:22.141Z,10.12
2018-11-26T09:45:49.594Z,10.49
2018-11-26T09:48:16.013Z,10.20
2018-11-26T09:50:42.739Z,10.52
2018-11-26T09:53:10.186Z,10.23
2018-11-26T09:55:51.309Z,10.47
2018-11-26T09:58:20.773Z,10.53
2018-11-26T10:00:48.218Z,10.48
2018-11-26T10:03:19.087Z,10.43
2018-11-26T10:05:46.532Z,10.41
2018-11-26T10:08:14.241Z,10.35
2018-11-26T10:10:45.382Z,10.38
2018-11-26T10:13:12.725Z,10.43
2018-11-26T10:15:42.372Z,10.28
2018-11-26T10:20:58.118Z,10.67
2018-11-26T10:23:24.819Z,10.63
2018-11-26T10:28:42.033Z,10.46
2018-11-26T10:31:12.455Z,10.58
2018-11-26T10:33:40.993Z,10.66
2018-11-26T10:36:10.654Z,10.93
2018-11-26T10:38:37.314Z,10.38
2018-11-26T10:43:53.000Z,10.24
2018-11-26T10:46:21.711Z,10.09
2018-11-26T10:48:48.407Z,10.38
2018-11-26T10:51:15.907Z,10.54
2018-11-26T10:53:43.318Z,10.50
2018-11-26T10:56:14.351Z,10.62
2018-11-26T10:58:41.175Z,10.13
2018-11-26T11:01:08.694Z,10.44
2018-11-26T11:03:53.263Z,10.46
2018-11-26T11:09:09.414Z,10.78
2018-11-26T11:11:36.590Z,10.97
2018-11-26T11:14:03.023Z,10.57
2018-11-26T11:16:30.491Z,10.48
2018-11-26T11:19:01.798Z,10.48
2018-11-26T11:21:28.220Z,10.46
2018-11-26T11:23:55.643Z,10.32
2018-11-26T11:26:28.238Z,10.53
2018-11-26T11:28:54.467Z,10.85
2018-11-26T11:31:38.724Z,10.66
2018-11-26T11:34:05.443Z,10.39
2018-11-26T11:36:34.020Z,10.46
2018-11-26T11:39:01.465Z,10.43
2018-11-26T11:41:34.301Z,10.56
2018-11-26T11:44:01.779Z,10.76
2018-11-26T11:46:28.557Z,10.45
2018-11-26T11:48:57.345Z,10.71
2018-11-26T11:51:27.210Z,10.43
2018-11-26T11:53:54.639Z,10.42
2018-11-26T11:56:24.003Z,10.57
2018-11-26T11:58:53.931Z,10.27
2018-11-26T12:01:24.674Z,10.58
2018-11-26T12:03:51.918Z,10.62
2018-11-26T12:09:10.324Z,10.51
2018-11-26T12:11:41.204Z,10.70
2018-11-26T12:14:07.896Z,10.72
2018-11-26T12:16:37.748Z,10.70
2018-11-26T12:19:04.857Z,10.68
2018-11-26T12:21:32.351Z,10.74
2018-11-26T12:24:07.863Z,10.81
2018-11-26T12:26:46.109Z,10.42
2018-11-26T12:29:12.842Z,10.25
2018-11-26T12:31:39.587Z,10.50
2018-11-26T12:34:08.250Z,10.96
2018-11-26T12:39:07.742Z,10.65
2018-11-26T12:41:35.926Z,10.60
2018-11-26T12:44:04.916Z,10.97
2018-11-26T12:49:18.779Z,10.94
2018-11-26T12:51:45.474Z,10.95
2018-11-26T12:54:15.605Z,11.04
2018-11-26T12:56:45.825Z,11.14
2018-11-26T12:59:15.402Z,10.93
2018-11-26T13:01:44.482Z,10.68
2018-11-26T13:04:10.966Z,10.59
2018-11-26T13:06:40.643Z,10.69
2018-11-26T13:09:09.477Z,10.53
2018-11-26T13:14:27.494Z,10.55
2018-11-26T13:19:44.036Z,11.03
2018-11-26T13:22:13.510Z,11.29
2018-11-26T13:24:39.935Z,11.21
2018-11-26T13:27:23.392Z,11.18
2018-11-26T13:29:50.419Z,11.08
2018-11-26T13:32:17.883Z,10.92
2018-11-26T13:34:48.764Z,10.81
2018-11-26T13:37:15.389Z,10.78
2018-11-26T13:39:41.805Z,10.63
2018-11-26T13:42:12.504Z,10.70
2018-11-26T13:44:39.234Z,10.82
2018-11-26T13:48:26.608Z,10.85
2018-11-26T13:49:35.551Z,10.36
2018-11-26T13:52:03.255Z,10.41
2018-11-26T13:54:30.728Z,10.58
2018-11-26T13:57:01.371Z,10.41
2018-11-26T13:59:32.067Z,10.46
2018-11-26T14:02:02.769Z,10.51
2018-11-26T14:04:32.671Z,10.20
2018-11-26T14:07:01.157Z,10.27
2018-11-26T14:09:28.912Z,10.38
2018-11-26T14:11:55.702Z,10.53
2018-11-26T14:14:22.430Z,10.36
2018-11-26T14:19:36.486Z,10.30
2018-11-26T14:22:04.567Z,10.28
2018-11-26T14:24:32.041Z,10.22
2018-11-26T14:26:59.281Z,9.96
2018-11-26T14:29:26.592Z,10.06
2018-11-26T14:31:53.310Z,10.09
2018-11-26T14:34:23.538Z,10.09
2018-11-26T14:36:50.246Z,10.11
2018-11-26T14:39:37.178Z,10.22
2018-11-26T14:42:05.912Z,10.27
2018-11-26T14:44:33.366Z,10.25
2018-11-26T14:46:59.824Z,10.05
2018-11-26T14:49:29.252Z,9.98
2018-11-26T14:52:00.863Z,9.88
2018-11-26T14:54:30.426Z,9.78
2018-11-26T14:56:58.416Z,9.57
2018-11-26T14:59:36.258Z,9.47
2018-11-26T15:02:03.708Z,9.87
2018-11-26T15:04:32.498Z,10.06
2018-11-26T15:06:58.939Z,9.94
2018-11-26T15:09:26.390Z,10.20
2018-11-26T15:11:55.755Z,10.02
2018-11-26T15:14:22.406Z,9.96
2018-11-26T15:16:49.881Z,9.87
2018-11-26T15:19:20.522Z,9.75
2018-11-26T15:21:47.980Z,9.49
2018-11-26T15:24:20.380Z,9.45
2018-11-26T15:26:53.257Z,9.34
2018-11-26T15:32:07.047Z,9.38
2018-11-26T15:34:36.898Z,9.32
2018-11-26T15:37:04.445Z,9.36
2018-11-26T15:39:33.219Z,9.61
2018-11-26T15:42:00.671Z,9.64
2018-11-26T15:44:29.403Z,9.68
2018-11-26T15:46:57.132Z,9.72
2018-11-26T15:49:27.949Z,9.92
2018-11-26T15:51:57.913Z,9.71
2018-11-26T15:54:32.067Z,9.72
2018-11-26T15:56:59.537Z,9.74
2018-11-26T15:59:28.346Z,9.74
2018-11-26T16:01:58.369Z,9.92
2018-11-26T16:04:42.245Z,10.12
2018-11-26T16:07:11.889Z,10.03
2018-11-26T16:09:38.360Z,9.82
2018-11-26T16:12:11.284Z,9.73
2018-11-26T16:14:47.388Z,9.82
2018-11-26T16:17:14.839Z,10.06
2018-11-26T16:19:42.545Z,9.93
2018-11-26T16:22:11.680Z,9.70
2018-11-26T16:24:39.130Z,9.33
2018-11-26T16:27:09.707Z,9.23
2018-11-26T16:29:39.298Z,9.35
2018-11-26T16:32:06.759Z,9.28
2018-11-26T16:34:34.195Z,9.32
2018-11-26T16:37:03.163Z,9.34
2018-11-26T16:39:30.963Z,9.34
2018-11-26T16:41:58.912Z,9.34
2018-11-26T16:44:28.872Z,9.47
2018-11-26T16:47:05.518Z,9.64
2018-11-26T16:49:32.994Z,9.63
2018-11-26T16:52:02.796Z,9.72
2018-11-26T16:54:31.550Z,9.65
2018-11-26T16:59:55.458Z,9.51
2018-11-26T17:02:22.930Z,9.30
2018-11-26T17:04:51.741Z,9.47
2018-11-26T17:07:18.187Z,9.55
2018-11-26T17:09:46.522Z,9.44
2018-11-26T17:15:02.235Z,9.50
2018-11-26T17:17:31.175Z,9.29
2018-11-26T17:20:00.814Z,9.27
2018-11-26T17:22:29.098Z,9.00
2018-11-26T17:25:26.093Z,8.99
2018-11-26T17:27:53.008Z,9.40
2018-11-26T17:30:22.337Z,9.59
2018-11-26T17:32:49.804Z,9.37
2018-11-26T17:35:19.797Z,9.26
2018-11-26T17:37:49.969Z,9.58
2018-11-26T17:40:17.436Z,9.61
2018-11-26T17:42:44.854Z,9.49
2018-11-26T17:45:11.259Z,9.24
2018-11-26T17:47:37.705Z,9.53
2018-11-26T17:50:06.312Z,9.58
2018-11-26T17:52:37.267Z,9.78
2018-11-26T17:55:15.630Z,9.83
2018-11-26T17:57:43.732Z,9.91
2018-11-26T18:00:12.292Z,9.78
2018-11-26T18:02:42.156Z,9.72
2018-11-26T18:05:16.099Z,9.54
2018-11-26T18:07:46.711Z,9.63
2018-11-26T18:10:15.356Z,9.58
2018-11-26T18:12:44.748Z,9.80
2018-11-26T18:15:11.660Z,9.67
2018-11-26T18:17:38.873Z,9.92
2018-11-26T18:20:09.757Z,9.78
2018-11-26T18:22:37.523Z,9.58
2018-11-26T18:25:05.223Z,9.62
2018-11-26T18:27:32.268Z,9.69
2018-11-26T18:30:02.942Z,9.79
2018-11-26T18:32:33.622Z,10.11
2018-11-26T18:35:02.274Z,10.12
2018-11-26T18:37:29.728Z,10.25
2018-11-26T18:39:57.440Z,10.02
2018-11-26T18:42:26.279Z,10.11
2018-11-26T18:44:53.718Z,9.86
2018-11-26T18:47:21.195Z,9.89
2018-11-26T18:49:47.637Z,9.95
2018-11-26T18:52:17.098Z,9.97
2018-11-26T18:54:44.548Z,10.03
2018-11-26T18:57:11.230Z,9.89
2018-11-26T18:59:41.748Z,9.59
2018-11-26T19:02:08.181Z,9.48
2018-11-26T19:07:21.435Z,9.72
2018-11-26T19:09:48.388Z,9.90
2018-11-26T19:12:16.082Z,10.47
2018-11-26T19:17:31.644Z,10.31
2018-11-26T19:19:58.314Z,10.30
2018-11-26T19:22:25.788Z,10.35
2018-11-26T19:24:54.703Z,10.27
2018-11-26T19:27:24.309Z,10.01
2018-11-26T19:29:52.053Z,10.11
2018-11-26T19:35:06.548Z,9.84
2018-11-26T19:37:35.891Z,10.18
2018-11-26T19:40:19.636Z,10.24
2018-11-26T19:42:46.081Z,10.11
2018-11-26T19:45:15.812Z,9.79
2018-11-26T19:47:43.248Z,9.94
2018-11-26T19:50:11.425Z,10.01
2018-11-26T19:52:38.204Z,9.47
2018-11-26T19:55:07.393Z,9.40
2018-11-26T19:57:34.873Z,9.71
2018-11-26T20:00:01.568Z,9.93
2018-11-26T20:02:28.995Z,9.77
2018-11-26T20:04:56.449Z,9.94
2018-11-26T20:07:25.537Z,9.80
2018-11-26T20:09:52.969Z,9.78
2018-11-26T20:12:22.529Z,9.79
2018-11-26T20:14:50.093Z,9.90
2018-11-26T20:17:17.555Z,9.44
2018-11-26T20:19:46.242Z,9.61
2018-11-26T20:22:13.328Z,10.14
2018-11-26T20:24:40.783Z,10.11
2018-11-26T20:27:08.250Z,9.98
2018-11-26T20:29:45.966Z,9.68
2018-11-26T20:32:16.315Z,9.98
2018-11-26T20:34:44.593Z,9.68
2018-11-26T20:37:11.859Z,9.76
2018-11-26T20:39:38.315Z,9.66
2018-11-26T20:42:16.444Z,9.73
2018-11-26T20:44:46.255Z,10.20
2018-11-26T20:47:13.696Z,10.18
2018-11-26T20:49:42.512Z,10.17
2018-11-26T20:52:11.311Z,10.14
2018-11-26T20:54:41.264Z,10.37
2018-11-26T20:57:08.722Z,10.35
2018-11-26T20:59:35.538Z,10.48
2018-11-26T21:02:02.983Z,10.57
2018-11-26T21:04:30.779Z,10.61
2018-11-26T21:07:01.242Z,10.53
2018-11-26T21:09:30.173Z,10.53
2018-11-26T21:14:43.458Z,10.01
2018-11-26T21:17:10.123Z,10.41
2018-11-26T21:19:40.089Z,10.20
2018-11-26T21:22:07.572Z,10.50
2018-11-26T21:24:36.280Z,10.35
2018-11-26T21:27:04.344Z,10.30
2018-11-26T21:29:32.626Z,10.41
2018-11-26T21:34:47.272Z,9.98
2018-11-26T21:37:13.704Z,10.18
2018-11-26T21:42:29.426Z,10.51
2018-11-26T21:44:59.690Z,10.40
2018-11-26T21:47:29.160Z,10.85
2018-11-26T21:49:55.885Z,10.69
2018-11-26T21:52:24.552Z,10.41
2018-11-26T21:54:51.008Z,10.20
2018-11-26T21:57:18.924Z,10.16
2018-11-26T21:59:47.875Z,10.16
2018-11-26T22:02:14.770Z,10.23
2018-11-26T22:07:32.414Z,10.28
2018-11-26T22:10:01.920Z,10.36
2018-11-26T22:12:32.470Z,10.50
2018-11-26T22:15:00.379Z,10.31
2018-11-26T22:17:29.845Z,10.29
2018-11-26T22:20:00.763Z,10.19
2018-11-26T22:25:17.287Z,9.98
2018-11-26T22:27:45.500Z,10.19
2018-11-26T22:30:12.979Z,10.23
2018-11-26T22:32:41.755Z,10.32
2018-11-26T22:35:08.423Z,10.26
2018-11-26T22:37:40.728Z,9.77
2018-11-26T22:42:55.421Z,10.06
2018-11-26T22:45:23.157Z,10.04
2018-11-26T22:47:54.877Z,9.98
2018-11-26T22:50:22.565Z,9.84
2018-11-26T22:58:24.139Z,9.79
2018-11-26T23:00:50.603Z,9.77
2018-11-26T23:03:18.837Z,9.89
2018-11-26T23:05:52.212Z,10.17
2018-11-26T23:08:19.904Z,10.45
2018-11-26T23:10:50.996Z,10.11
2018-11-26T23:13:19.184Z,10.38
2018-11-26T23:15:49.113Z,10.30
2018-11-26T23:21:04.345Z,10.39
2018-11-26T23:23:32.533Z,10.06
2018-11-26T23:26:01.705Z,9.84
2018-11-26T23:28:29.558Z,9.69
2018-11-26T23:31:00.137Z,9.97
2018-11-26T23:33:29.018Z,9.71
2018-11-26T23:35:56.471Z,9.72
2018-11-26T23:38:23.007Z,9.64
2018-11-26T23:40:50.154Z,9.81
2018-11-26T23:43:16.598Z,9.35
2018-11-26T23:45:47.437Z,9.12
2018-11-26T23:48:15.484Z,9.24
2018-11-26T23:51:00.544Z,9.19
2018-11-26T23:53:31.417Z,9.17
2018-11-26T23:56:01.923Z,9.26
